This is the latest recevied weather packets stored in our database for station/object KHOT. If no packets are shown the sender has not sent any weather packets the latest 10 day(s).
| Time | Temp. | Humidity | Pressure | Rain* | Wind** | Luminosity | Snow |
|---|---|---|---|---|---|---|---|
| 1787451812 | 25.56° C | 74% | 1015.9 hPa | - | - | - | - |
| 1787451208 | 25.56° C | 74% | 1015.9 hPa | - | - | - | - |
| 1787450610 | 25.56° C | 74% | 1015.9 hPa | - | - | - | - |
| 1787450011 | 26.67° C | 69% | 1014.9 hPa | - | - | - | - |
| 1787449411 | 26.67° C | 69% | 1014.9 hPa | - | - | - | - |
| 1787448813 | 26.67° C | 69% | 1014.9 hPa | - | - | - | - |
| 1787448213 | 27.78° C | 61% | 1014.9 hPa | - | - | - | - |
| 1787447610 | 27.78° C | 61% | 1014.9 hPa | - | - | - | - |
| 1787447009 | 28.89° C | 58% | 1014.9 hPa | - | - | - | - |
| 1787446414 | 32.78° C | 43% | 1014.2 hPa | - | - | - | - |
| 1787445810 | 35.56° C | 37% | 1012.9 hPa | - | - | - | - |
| 1787445212 | 35.56° C | 37% | 1012.9 hPa | - | - | - | - |
| 1787444610 | 35.56° C | 37% | 1012.9 hPa | - | - | - | - |
| 1787444010 | 35.56° C | 37% | 1012.9 hPa | - | - | - | - |
| 1787443411 | 35.56° C | 37% | 1012.9 hPa | - | - | - | - |
| 1787442813 | 35.56° C | 34% | 1013.2 hPa | - | - | - | - |
| 1787442210 | 35.56° C | 34% | 1013.2 hPa | - | - | - | - |
| 1787441613 | 35.56° C | 34% | 1013.2 hPa | - | - | - | - |
| 1787441010 | 35.56° C | 34% | 1013.2 hPa | - | - | - | - |
| 1787440418 | 35.56° C | 34% | 1013.2 hPa | - | - | - | - |
| 1787439813 | 35.56° C | 34% | 1013.2 hPa | - | - | - | - |
| 1787439214 | 33.89° C | 38% | 1013.9 hPa | - | - | - | - |
| 1787438609 | 33.89° C | 38% | 1013.9 hPa | - | - | - | - |
| 1787438011 | 33.89° C | 38% | 1013.9 hPa | - | - | - | - |
| 1787437410 | 33.89° C | 38% | 1013.9 hPa | - | - | - | - |
* Rain since midnight (hover to see other rain measurements)
** Current wind speed in m/s (hover to see current wind gust speed)